createdAt,value
2022-11-29T00:00:19.344Z,14.20
2022-11-29T00:03:12.655Z,15.20
2022-11-29T00:05:46.620Z,15.70
2022-11-29T00:08:20.087Z,14.50
2022-11-29T00:10:54.010Z,15.80
2022-11-29T00:13:27.651Z,15.00
2022-11-29T00:16:05.653Z,15.40
2022-11-29T00:18:39.757Z,15.00
2022-11-29T00:21:13.583Z,12.80
2022-11-29T00:23:47.633Z,14.90
2022-11-29T00:26:21.520Z,13.40
2022-11-29T00:28:55.181Z,14.30
2022-11-29T00:31:31.816Z,14.20
2022-11-29T00:34:07.348Z,12.40
2022-11-29T00:36:41.393Z,13.90
2022-11-29T00:39:16.758Z,14.60
2022-11-29T00:41:50.414Z,14.90
2022-11-29T00:44:24.197Z,15.60
2022-11-29T00:46:57.986Z,14.70
2022-11-29T00:49:31.254Z,14.40
2022-11-29T00:52:04.726Z,13.50
2022-11-29T00:54:38.551Z,14.30
2022-11-29T00:57:12.141Z,14.60
2022-11-29T00:59:45.752Z,14.00
2022-11-29T01:02:19.416Z,12.50
2022-11-29T01:04:53.425Z,13.30
2022-11-29T01:07:26.990Z,14.10
2022-11-29T01:10:00.591Z,13.80
2022-11-29T01:12:36.412Z,14.30
2022-11-29T01:15:12.147Z,14.20
2022-11-29T01:17:46.837Z,13.80
2022-11-29T01:20:20.597Z,13.20
2022-11-29T01:22:54.315Z,15.70
2022-11-29T01:25:28.005Z,13.20
2022-11-29T01:28:01.959Z,14.10
2022-11-29T01:30:35.705Z,14.30
2022-11-29T01:33:09.351Z,13.40
2022-11-29T01:35:42.592Z,13.20
2022-11-29T01:38:16.153Z,14.50
2022-11-29T01:41:01.672Z,13.40
2022-11-29T01:43:35.781Z,13.60
2022-11-29T01:46:09.667Z,13.50
2022-11-29T01:48:43.376Z,13.20
2022-11-29T01:51:17.141Z,14.80
2022-11-29T01:53:50.862Z,13.50
2022-11-29T01:56:25.286Z,14.70
2022-11-29T01:58:58.777Z,13.80
2022-11-29T02:01:33.043Z,14.30
2022-11-29T02:04:07.549Z,15.10
2022-11-29T02:06:43.030Z,13.80
2022-11-29T02:09:23.875Z,13.90
2022-11-29T02:12:18.866Z,15.30
2022-11-29T02:15:24.853Z,14.30
2022-11-29T02:18:06.542Z,13.10
2022-11-29T02:21:06.599Z,13.10
2022-11-29T02:24:14.226Z,14.60
2022-11-29T02:27:06.159Z,14.20
2022-11-29T02:30:04.512Z,13.80
2022-11-29T02:33:24.334Z,13.70
2022-11-29T02:36:20.868Z,14.50
2022-11-29T02:39:28.233Z,15.40
2022-11-29T02:42:31.278Z,15.70
2022-11-29T02:45:12.311Z,15.40
2022-11-29T02:48:00.130Z,14.20
2022-11-29T02:50:44.266Z,13.80
2022-11-29T02:53:27.153Z,14.30
2022-11-29T02:56:08.541Z,13.10
2022-11-29T02:58:49.847Z,12.90
2022-11-29T03:01:28.008Z,14.10
2022-11-29T03:04:13.651Z,13.80
2022-11-29T03:06:56.472Z,14.00
2022-11-29T03:09:41.028Z,14.80
2022-11-29T03:12:27.449Z,13.80
2022-11-29T03:15:13.088Z,14.50
2022-11-29T03:17:59.568Z,13.00
2022-11-29T03:20:47.210Z,14.50
2022-11-29T03:23:29.979Z,14.30
2022-11-29T03:26:09.415Z,13.40
2022-11-29T03:28:50.697Z,14.30
2022-11-29T03:31:30.997Z,14.50
2022-11-29T03:34:15.466Z,13.80
2022-11-29T03:36:56.453Z,14.90
2022-11-29T03:39:39.400Z,13.30
2022-11-29T03:42:18.824Z,12.50
2022-11-29T03:44:57.384Z,13.00
2022-11-29T03:50:09.608Z,14.00
2022-11-29T03:52:49.641Z,13.60
2022-11-29T03:55:48.369Z,13.70
2022-11-29T03:58:50.764Z,13.10
2022-11-29T04:01:59.132Z,13.50
2022-11-29T04:05:06.047Z,14.60
2022-11-29T04:07:51.969Z,13.40
2022-11-29T04:10:41.790Z,13.30
2022-11-29T04:13:44.419Z,12.60
2022-11-29T04:16:51.759Z,13.10
2022-11-29T04:19:54.290Z,12.60
2022-11-29T04:22:46.151Z,11.40
2022-11-29T04:25:50.680Z,11.80
2022-11-29T04:28:42.288Z,14.40
2022-11-29T04:31:30.221Z,13.50
2022-11-29T04:34:38.741Z,13.30
2022-11-29T04:37:33.795Z,12.70
2022-11-29T04:40:38.172Z,12.20
2022-11-29T04:43:23.348Z,13.50
2022-11-29T04:46:38.584Z,13.20
2022-11-29T04:49:25.959Z,13.10
2022-11-29T04:52:16.853Z,13.00
2022-11-29T04:54:59.001Z,12.60
2022-11-29T04:57:38.921Z,12.80
2022-11-29T05:00:14.336Z,13.70
2022-11-29T05:02:56.285Z,12.90
2022-11-29T05:05:36.826Z,13.80
2022-11-29T05:08:33.728Z,14.00
2022-11-29T05:11:22.062Z,15.80
2022-11-29T05:14:06.905Z,14.10
2022-11-29T05:16:50.651Z,15.00
2022-11-29T05:19:48.396Z,17.00
2022-11-29T05:22:31.524Z,17.20
2022-11-29T05:25:23.371Z,14.90
2022-11-29T05:28:09.979Z,15.80
2022-11-29T05:31:15.144Z,18.40
2022-11-29T05:34:07.643Z,17.50
2022-11-29T05:36:48.704Z,14.90
2022-11-29T05:39:43.286Z,16.50
2022-11-29T05:42:49.998Z,15.80
2022-11-29T05:45:31.111Z,17.90
2022-11-29T05:48:12.934Z,15.90
2022-11-29T05:50:51.010Z,17.70
2022-11-29T05:53:30.029Z,16.60
2022-11-29T05:56:11.778Z,17.80
2022-11-29T05:58:52.694Z,16.10
2022-11-29T06:01:29.599Z,17.30
2022-11-29T06:04:15.025Z,16.40
2022-11-29T06:06:57.512Z,14.90
2022-11-29T06:09:36.093Z,16.40
2022-11-29T06:15:08.929Z,16.90
2022-11-29T06:18:11.811Z,18.50
2022-11-29T06:21:01.293Z,17.30
2022-11-29T06:24:02.127Z,18.40
2022-11-29T06:27:04.461Z,19.20
2022-11-29T06:29:45.085Z,16.30
2022-11-29T06:32:29.386Z,19.00
2022-11-29T06:35:11.214Z,19.60
2022-11-29T06:37:50.067Z,17.70
2022-11-29T06:40:24.361Z,14.50
2022-11-29T06:42:57.880Z,17.10
2022-11-29T06:45:33.040Z,16.10
2022-11-29T06:48:11.526Z,15.50
2022-11-29T06:50:54.295Z,15.30
2022-11-29T06:53:39.768Z,17.20
2022-11-29T06:56:23.049Z,17.70
2022-11-29T06:59:04.720Z,19.10
2022-11-29T07:01:45.077Z,18.20
2022-11-29T07:04:45.647Z,20.90
2022-11-29T07:07:24.159Z,20.50
2022-11-29T07:09:59.913Z,19.70
2022-11-29T07:12:35.330Z,22.90
2022-11-29T07:15:14.127Z,23.60
2022-11-29T07:18:01.841Z,19.20
2022-11-29T07:20:42.810Z,19.40
2022-11-29T07:23:27.732Z,22.50
2022-11-29T07:26:10.843Z,23.00
2022-11-29T07:28:57.832Z,22.50
2022-11-29T07:31:44.391Z,22.30
2022-11-29T07:34:26.633Z,22.40
2022-11-29T07:37:08.430Z,20.80
2022-11-29T07:39:51.804Z,19.90
2022-11-29T07:42:33.445Z,21.30
2022-11-29T07:45:20.580Z,22.70
2022-11-29T07:47:53.835Z,23.90
2022-11-29T07:50:28.134Z,24.80
2022-11-29T07:53:02.935Z,22.90
2022-11-29T07:55:37.811Z,22.60
2022-11-29T07:58:11.952Z,20.90
2022-11-29T08:00:46.322Z,21.70
2022-11-29T08:03:20.096Z,22.20
2022-11-29T08:05:54.151Z,20.80
2022-11-29T08:08:28.283Z,19.60
2022-11-29T08:11:02.307Z,21.20
2022-11-29T08:13:36.411Z,18.20
2022-11-29T08:16:11.076Z,20.00
2022-11-29T08:18:44.325Z,18.90
2022-11-29T08:21:18.884Z,19.00
2022-11-29T08:23:52.865Z,19.10
2022-11-29T08:26:31.273Z,17.70
2022-11-29T08:29:05.915Z,19.30
2022-11-29T08:31:40.227Z,17.90
2022-11-29T08:34:14.279Z,15.10
2022-11-29T08:36:47.644Z,19.40
2022-11-29T08:39:21.394Z,16.60
2022-11-29T08:41:55.300Z,19.30
2022-11-29T08:44:28.991Z,20.00
2022-11-29T08:47:20.040Z,17.40
2022-11-29T08:50:05.959Z,16.40
2022-11-29T08:53:00.045Z,17.10
2022-11-29T08:55:36.343Z,19.50
2022-11-29T08:58:11.757Z,19.30
2022-11-29T09:00:47.421Z,20.10
2022-11-29T09:03:39.076Z,19.00
2022-11-29T09:06:15.415Z,20.60
2022-11-29T09:08:49.112Z,17.90
2022-11-29T09:11:23.852Z,15.50
2022-11-29T09:13:59.224Z,16.50
2022-11-29T09:16:35.032Z,17.00
2022-11-29T09:19:09.546Z,17.70
2022-11-29T09:21:43.314Z,16.90
2022-11-29T09:24:16.787Z,17.10
2022-11-29T09:26:50.464Z,18.10
2022-11-29T09:29:24.156Z,15.90
2022-11-29T09:31:58.003Z,18.10
2022-11-29T09:34:31.868Z,15.90
2022-11-29T09:37:06.123Z,15.60
2022-11-29T09:39:40.672Z,16.50
2022-11-29T09:42:35.649Z,17.50
2022-11-29T09:45:11.887Z,16.90
2022-11-29T09:48:06.411Z,17.70
2022-11-29T09:50:47.441Z,15.90
2022-11-29T09:53:44.040Z,16.10
2022-11-29T09:56:26.204Z,15.60
2022-11-29T09:59:03.949Z,17.10
2022-11-29T10:01:41.402Z,15.70
2022-11-29T10:04:20.782Z,16.40
2022-11-29T10:07:00.096Z,16.10
2022-11-29T10:09:40.670Z,16.00
2022-11-29T10:12:20.710Z,13.80
2022-11-29T10:15:00.650Z,13.70
2022-11-29T10:17:39.197Z,13.30
2022-11-29T10:20:19.528Z,13.80
2022-11-29T10:22:57.611Z,13.10
2022-11-29T10:25:35.590Z,14.40
2022-11-29T10:28:15.792Z,14.30
2022-11-29T10:30:49.989Z,14.40
2022-11-29T10:33:27.261Z,14.60
2022-11-29T10:36:06.129Z,13.40
2022-11-29T10:38:39.717Z,14.30
2022-11-29T10:41:19.695Z,14.40
2022-11-29T10:43:56.459Z,13.50
2022-11-29T10:46:34.182Z,13.40
2022-11-29T10:49:09.969Z,14.30
2022-11-29T10:51:44.395Z,14.10
2022-11-29T10:54:34.042Z,13.80
2022-11-29T10:57:15.977Z,14.30
2022-11-29T11:00:04.688Z,14.20
2022-11-29T11:02:38.979Z,13.50
2022-11-29T11:05:19.760Z,13.60
2022-11-29T11:08:00.456Z,14.90
2022-11-29T11:10:34.484Z,13.30
2022-11-29T11:13:20.592Z,13.30
2022-11-29T11:16:00.001Z,13.90
2022-11-29T11:18:33.485Z,13.80
2022-11-29T11:21:09.813Z,15.10
2022-11-29T11:23:54.629Z,13.20
2022-11-29T11:26:29.409Z,15.10
2022-11-29T11:29:04.555Z,13.60
2022-11-29T11:31:39.644Z,13.00
2022-11-29T11:34:36.824Z,13.50
2022-11-29T11:37:28.346Z,13.60
2022-11-29T11:40:20.750Z,13.40
2022-11-29T11:42:54.691Z,13.20
2022-11-29T11:45:36.147Z,13.70
2022-11-29T11:48:19.512Z,12.90
2022-11-29T11:50:57.971Z,12.70
2022-11-29T11:53:36.268Z,13.10
2022-11-29T11:58:49.152Z,14.50
2022-11-29T12:01:31.185Z,12.60
2022-11-29T12:04:13.358Z,14.00
2022-11-29T12:06:54.764Z,13.70
2022-11-29T12:09:37.757Z,13.70
2022-11-29T12:12:19.797Z,14.10
2022-11-29T12:15:00.284Z,13.80
2022-11-29T12:17:39.601Z,14.30
2022-11-29T12:20:28.509Z,13.40
2022-11-29T12:23:17.564Z,14.30
2022-11-29T12:25:56.782Z,13.80
2022-11-29T12:28:34.510Z,12.90
2022-11-29T12:31:19.827Z,12.90
2022-11-29T12:34:03.925Z,13.00
2022-11-29T12:36:48.131Z,13.90
2022-11-29T12:39:35.223Z,14.50
2022-11-29T12:42:20.193Z,12.10
2022-11-29T12:45:02.061Z,12.20
2022-11-29T12:47:51.819Z,13.40
2022-11-29T12:50:40.834Z,13.40
2022-11-29T12:56:16.567Z,12.60
2022-11-29T12:59:07.481Z,13.10
2022-11-29T13:01:54.753Z,12.00
2022-11-29T13:04:37.874Z,13.50
2022-11-29T13:07:19.981Z,13.70
2022-11-29T13:10:19.886Z,14.40
2022-11-29T13:12:56.925Z,14.10
2022-11-29T13:15:42.523Z,14.00
2022-11-29T13:18:22.885Z,13.40
2022-11-29T13:21:00.901Z,13.90
2022-11-29T13:26:38.931Z,13.10
2022-11-29T13:29:17.755Z,14.00
2022-11-29T13:31:51.882Z,14.00
2022-11-29T13:34:32.336Z,13.40
2022-11-29T13:37:16.420Z,14.20
2022-11-29T13:40:03.660Z,13.60
2022-11-29T13:42:46.316Z,13.10
2022-11-29T13:45:28.355Z,14.20
2022-11-29T13:48:03.793Z,12.60
2022-11-29T13:50:44.157Z,13.20
2022-11-29T13:53:21.981Z,14.70
2022-11-29T13:56:02.117Z,13.70
2022-11-29T13:58:41.210Z,14.10
2022-11-29T14:01:16.652Z,15.50
2022-11-29T14:04:02.672Z,13.00
2022-11-29T14:06:40.591Z,14.30
2022-11-29T14:09:30.792Z,11.20
2022-11-29T14:12:21.211Z,15.50
2022-11-29T14:14:59.831Z,13.90
2022-11-29T14:20:58.755Z,13.80
2022-11-29T14:23:38.254Z,13.70
2022-11-29T14:26:30.621Z,14.30
2022-11-29T14:29:24.610Z,14.70
2022-11-29T14:31:59.044Z,14.10
2022-11-29T14:34:45.542Z,15.00
2022-11-29T14:37:30.847Z,14.40
2022-11-29T14:40:15.876Z,14.20
2022-11-29T14:42:53.145Z,14.00
2022-11-29T14:45:30.258Z,13.80
2022-11-29T14:48:05.047Z,14.40
2022-11-29T14:50:42.153Z,13.90
2022-11-29T14:56:42.783Z,14.40
2022-11-29T14:59:48.737Z,13.50
2022-11-29T15:02:34.027Z,13.60
2022-11-29T15:05:17.886Z,13.90
2022-11-29T15:07:59.728Z,13.60
2022-11-29T15:10:37.822Z,14.50
2022-11-29T15:13:14.039Z,13.60
2022-11-29T15:16:11.068Z,14.00
2022-11-29T15:19:36.319Z,14.10
2022-11-29T15:22:17.231Z,13.80
2022-11-29T15:24:59.160Z,14.10
2022-11-29T15:27:36.221Z,14.80
2022-11-29T15:30:34.794Z,14.80
2022-11-29T15:33:10.369Z,14.90
2022-11-29T15:35:52.372Z,14.00
2022-11-29T15:38:27.376Z,12.20
2022-11-29T15:41:01.002Z,14.20
2022-11-29T15:43:38.927Z,12.70
2022-11-29T15:46:23.423Z,13.90
2022-11-29T15:49:17.383Z,13.60
2022-11-29T15:51:55.875Z,13.90
2022-11-29T15:54:35.363Z,13.90
2022-11-29T15:57:15.787Z,14.20
2022-11-29T15:59:53.258Z,13.00
2022-11-29T16:02:29.858Z,15.00
2022-11-29T16:05:06.877Z,13.80
2022-11-29T16:07:42.749Z,14.30
2022-11-29T16:10:19.888Z,15.30
2022-11-29T16:12:59.376Z,14.60
2022-11-29T16:15:34.982Z,14.10
2022-11-29T16:18:15.955Z,15.30
2022-11-29T16:21:02.640Z,14.70
2022-11-29T16:23:41.678Z,15.00
2022-11-29T16:26:19.702Z,15.10
2022-11-29T16:28:55.165Z,16.70
2022-11-29T16:31:36.390Z,14.70
2022-11-29T16:34:23.152Z,15.80
2022-11-29T16:37:06.663Z,15.10
2022-11-29T16:39:42.398Z,16.00
2022-11-29T16:42:25.890Z,17.20
2022-11-29T16:45:39.836Z,15.30
2022-11-29T16:48:33.030Z,15.60
2022-11-29T16:51:25.353Z,15.40
2022-11-29T16:54:20.213Z,16.00
2022-11-29T16:56:58.372Z,13.70
2022-11-29T16:59:36.191Z,15.90
2022-11-29T17:02:13.260Z,15.70
2022-11-29T17:04:48.737Z,16.40
2022-11-29T17:07:30.094Z,15.40
2022-11-29T17:10:05.801Z,16.60
2022-11-29T17:12:44.765Z,16.10
2022-11-29T17:15:21.814Z,14.50
2022-11-29T17:17:56.033Z,16.30
2022-11-29T17:20:30.552Z,16.50
2022-11-29T17:23:03.973Z,15.30
2022-11-29T17:25:38.777Z,16.20
2022-11-29T17:28:13.462Z,15.70
2022-11-29T17:30:47.146Z,17.40
2022-11-29T17:33:22.292Z,16.00
2022-11-29T17:35:56.622Z,15.70
2022-11-29T17:38:32.618Z,14.50
2022-11-29T17:41:12.253Z,14.90
2022-11-29T17:43:46.063Z,14.90
2022-11-29T17:46:22.794Z,15.60
2022-11-29T17:49:01.060Z,14.80
2022-11-29T17:51:54.041Z,16.30
2022-11-29T17:54:30.357Z,14.90
2022-11-29T17:57:04.910Z,14.50
2022-11-29T17:59:39.665Z,15.10
2022-11-29T18:02:17.094Z,15.40
2022-11-29T18:04:51.601Z,14.90
2022-11-29T18:07:26.602Z,14.60
2022-11-29T18:10:00.701Z,14.80
2022-11-29T18:12:34.475Z,13.40
2022-11-29T18:15:10.464Z,16.00
2022-11-29T18:17:45.405Z,16.30
2022-11-29T18:20:21.671Z,15.60
2022-11-29T18:22:56.953Z,14.90
2022-11-29T18:25:38.631Z,15.10
2022-11-29T18:28:14.895Z,14.90
2022-11-29T18:30:49.923Z,15.70
2022-11-29T18:33:26.200Z,14.80
2022-11-29T18:36:06.031Z,14.20
2022-11-29T18:38:41.604Z,15.70
2022-11-29T18:41:17.577Z,13.80
2022-11-29T18:43:58.309Z,12.40
2022-11-29T18:46:36.517Z,15.10
2022-11-29T18:49:17.779Z,13.80
2022-11-29T18:51:54.576Z,14.60
2022-11-29T18:54:32.756Z,13.20
2022-11-29T18:57:07.702Z,13.60
2022-11-29T18:59:43.230Z,14.70
2022-11-29T19:02:20.973Z,14.80
2022-11-29T19:04:58.933Z,15.00
2022-11-29T19:07:36.015Z,15.00
2022-11-29T19:10:12.827Z,15.70
2022-11-29T19:12:49.888Z,15.10
2022-11-29T19:15:23.902Z,15.70
2022-11-29T19:17:58.164Z,15.50
2022-11-29T19:20:34.314Z,14.10
2022-11-29T19:23:15.272Z,15.90
2022-11-29T19:25:49.331Z,15.00
2022-11-29T19:28:24.461Z,14.70
2022-11-29T19:31:00.819Z,14.70
2022-11-29T19:33:37.150Z,14.10
2022-11-29T19:36:15.302Z,14.70
2022-11-29T19:38:53.671Z,14.60
2022-11-29T19:41:30.738Z,13.00
2022-11-29T19:44:08.014Z,14.40
2022-11-29T19:46:44.318Z,12.10
2022-11-29T19:49:19.380Z,14.00
2022-11-29T19:51:54.909Z,13.60
2022-11-29T19:54:29.912Z,13.80
2022-11-29T19:57:07.672Z,13.30
2022-11-29T19:59:42.686Z,14.60
2022-11-29T20:02:18.705Z,13.50
2022-11-29T20:04:54.279Z,13.80
2022-11-29T20:07:28.444Z,14.30
2022-11-29T20:10:04.110Z,14.60
2022-11-29T20:12:45.959Z,14.30
2022-11-29T20:15:22.137Z,14.20
2022-11-29T20:17:57.428Z,14.00
2022-11-29T20:20:32.467Z,13.40
2022-11-29T20:23:07.737Z,13.60
2022-11-29T20:25:42.547Z,12.70
2022-11-29T20:28:17.820Z,12.60
2022-11-29T20:30:53.280Z,14.00
2022-11-29T20:33:28.344Z,15.10
2022-11-29T20:36:15.943Z,14.00
2022-11-29T20:38:59.024Z,14.20
2022-11-29T20:41:41.592Z,13.60
2022-11-29T20:44:20.419Z,15.30
2022-11-29T20:46:56.136Z,14.80
2022-11-29T20:49:32.072Z,15.30
2022-11-29T20:52:12.647Z,15.80
2022-11-29T20:54:48.106Z,13.10
2022-11-29T20:57:22.106Z,14.70
2022-11-29T20:59:56.113Z,14.30
2022-11-29T21:02:31.748Z,15.40
2022-11-29T21:05:07.198Z,14.40
2022-11-29T21:07:42.765Z,15.40
2022-11-29T21:10:17.742Z,14.70
2022-11-29T21:12:52.638Z,12.70
2022-11-29T21:15:30.378Z,14.70
2022-11-29T21:18:05.144Z,14.50
2022-11-29T21:20:39.237Z,13.10
2022-11-29T21:23:22.953Z,13.30
2022-11-29T21:26:02.832Z,14.30
2022-11-29T21:28:44.161Z,13.60
2022-11-29T21:31:19.921Z,14.40
2022-11-29T21:33:54.453Z,12.30
2022-11-29T21:36:27.877Z,10.70
2022-11-29T21:39:05.125Z,14.00
2022-11-29T21:41:39.427Z,14.90
2022-11-29T21:44:12.905Z,12.80
2022-11-29T21:46:46.402Z,14.10
2022-11-29T21:49:20.186Z,13.00
2022-11-29T21:51:53.889Z,13.40
2022-11-29T21:54:27.419Z,13.00
2022-11-29T21:57:01.091Z,13.00
2022-11-29T21:59:35.008Z,11.80
2022-11-29T22:02:09.216Z,13.20
2022-11-29T22:04:43.137Z,13.10
2022-11-29T22:07:16.915Z,13.40
2022-11-29T22:09:50.443Z,14.10
2022-11-29T22:12:34.165Z,13.10
2022-11-29T22:15:12.794Z,12.70
2022-11-29T22:17:46.442Z,14.40
2022-11-29T22:20:21.495Z,13.70
2022-11-29T22:22:58.698Z,14.40
2022-11-29T22:25:35.373Z,14.10
2022-11-29T22:28:09.035Z,13.80
2022-11-29T22:30:42.565Z,14.10
2022-11-29T22:33:16.795Z,12.30
2022-11-29T22:35:50.298Z,13.20
2022-11-29T22:38:23.867Z,14.20
2022-11-29T22:41:00.439Z,14.30
2022-11-29T22:43:35.004Z,14.00
2022-11-29T22:46:11.355Z,12.90
2022-11-29T22:48:46.851Z,12.90
2022-11-29T22:51:21.978Z,13.70
2022-11-29T22:53:56.695Z,14.30
2022-11-29T22:56:32.037Z,13.70
2022-11-29T22:59:06.177Z,12.60
2022-11-29T23:01:41.585Z,14.40
2022-11-29T23:04:16.129Z,13.40
2022-11-29T23:06:50.237Z,13.80
2022-11-29T23:09:24.515Z,14.90
2022-11-29T23:11:58.825Z,14.00
2022-11-29T23:14:32.755Z,12.50
2022-11-29T23:17:05.958Z,12.90
2022-11-29T23:19:39.970Z,12.50
2022-11-29T23:22:13.413Z,13.10
2022-11-29T23:24:47.035Z,12.80
2022-11-29T23:27:21.648Z,13.70
2022-11-29T23:29:55.075Z,14.10
2022-11-29T23:32:28.877Z,13.80
2022-11-29T23:35:02.612Z,14.30
2022-11-29T23:37:36.615Z,13.40
2022-11-29T23:40:12.667Z,13.40
2022-11-29T23:42:47.351Z,13.40
2022-11-29T23:45:21.058Z,13.90
2022-11-29T23:47:54.920Z,12.80
2022-11-29T23:50:28.432Z,13.50
2022-11-29T23:53:01.968Z,13.30
2022-11-29T23:55:35.392Z,12.70
2022-11-29T23:58:09.624Z,14.20
